Time;durP1;ratioP1;P1;durP2;ratioP2;P2;SDS_P1;SDS_P2;PMS_P1;PMS_P2;Temp;Humidity;BMP_temperature;BMP_pressure;BME280_temperature;BME280_humidity;BME280_pressure;Samples;Min_cycle;Max_cycle;Signal;HPM_P1;HPM_P2
2024/02/20 00:02:08;;;;;;;18.97;18.27;;;;;;;;;;5019612;28;20475;-70
2024/02/20 00:04:35;;;;;;;19.30;18.60;;;;;;;;;;5013916;28;21153;-70
2024/02/20 00:07:03;;;;;;;19.77;19.07;;;;;;;;;;5011347;27;20474;-70
2024/02/20 00:09:30;;;;;;;18.83;18.13;;;;;;;;;;5027448;27;20455;-71
2024/02/20 00:11:57;;;;;;;19.67;18.97;;;;;;;;;;5019889;27;20493;-70
2024/02/20 00:14:25;;;;;;;19.83;19.13;;;;;;;;;;5014459;28;20970;-71
2024/02/20 00:16:52;;;;;;;19.20;18.50;;;;;;;;;;5018948;28;20503;-70
2024/02/20 00:19:21;;;;;;;19.30;18.60;;;;;;;;;;5017816;28;20461;-70
2024/02/20 00:21:48;;;;;;;19.47;18.77;;;;;;;;;;5032569;27;20856;-70
2024/02/20 00:24:15;;;;;;;19.40;18.70;;;;;;;;;;5022289;28;20453;-70
2024/02/20 00:26:45;;;;;;;19.10;18.40;;;;;;;;;;5020902;28;20468;-70
2024/02/20 00:29:12;;;;;;;18.67;18.00;;;;;;;;;;5012582;28;21164;-70
2024/02/20 00:31:39;;;;;;;19.37;18.67;;;;;;;;;;5017855;27;20470;-71
2024/02/20 00:34:07;;;;;;;19.80;19.10;;;;;;;;;;5009490;28;20466;-70
2024/02/20 00:36:35;;;;;;;19.97;19.27;;;;;;;;;;5022810;27;20495;-70
2024/02/20 00:39:03;;;;;;;19.23;18.53;;;;;;;;;;5020895;28;21168;-70
2024/02/20 00:41:31;;;;;;;20.23;19.43;;;;;;;;;;5019786;28;20467;-70
2024/02/20 00:43:58;;;;;;;20.80;20.00;;;;;;;;;;5020612;28;20480;-70
2024/02/20 00:46:25;;;;;;;21.00;20.20;;;;;;;;;;5021576;28;21024;-70
2024/02/20 00:48:52;;;;;;;20.53;19.73;;;;;;;;;;5012353;28;20496;-70
2024/02/20 00:51:22;;;;;;;19.30;18.60;;;;;;;;;;5022238;28;20820;-71
2024/02/20 00:53:51;;;;;;;20.10;19.40;;;;;;;;;;5018288;28;20503;-70
2024/02/20 00:56:18;;;;;;;20.20;19.50;;;;;;;;;;5025440;28;20524;-70
2024/02/20 00:58:45;;;;;;;20.53;19.77;;;;;;;;;;5005050;28;20570;-71
2024/02/20 01:01:12;;;;;;;19.30;18.60;;;;;;;;;;4976219;28;20497;-70
2024/02/20 01:03:42;;;;;;;20.03;19.33;;;;;;;;;;4977207;28;20470;-70
2024/02/20 01:06:09;;;;;;;19.30;18.60;;;;;;;;;;4974184;28;20991;-70
2024/02/20 01:08:37;;;;;;;19.33;18.63;;;;;;;;;;4975173;28;20570;-71
2024/02/20 01:11:06;;;;;;;18.87;18.27;;;;;;;;;;4978301;28;20580;-70
2024/02/20 01:13:33;;;;;;;18.90;18.30;;;;;;;;;;4976859;28;20468;-70
2024/02/20 01:16:00;;;;;;;19.20;18.50;;;;;;;;;;4976375;28;20485;-70
2024/02/20 01:18:27;;;;;;;20.20;19.50;;;;;;;;;;4976107;28;20467;-70
2024/02/20 01:20:54;;;;;;;20.80;20.00;;;;;;;;;;4978201;28;20470;-70
2024/02/20 01:23:22;;;;;;;20.70;20.00;;;;;;;;;;4976919;28;20479;-71
2024/02/20 01:25:49;;;;;;;21.10;20.30;;;;;;;;;;4976373;28;21171;-71
2024/02/20 01:28:18;;;;;;;23.00;22.10;;;;;;;;;;4977558;28;20469;-71
2024/02/20 01:30:47;;;;;;;21.80;21.00;;;;;;;;;;4975729;28;20475;-71
2024/02/20 01:33:15;;;;;;;22.07;21.27;;;;;;;;;;4974935;28;20829;-70
2024/02/20 01:35:42;;;;;;;23.07;22.27;;;;;;;;;;4976502;28;20480;-71
2024/02/20 01:38:10;;;;;;;23.43;22.53;;;;;;;;;;4977118;28;20513;-71
2024/02/20 01:40:38;;;;;;;23.67;22.77;;;;;;;;;;4979700;28;20457;-71
2024/02/20 01:43:06;;;;;;;23.50;22.60;;;;;;;;;;4980132;28;21082;-70
2024/02/20 01:45:36;;;;;;;25.60;24.60;;;;;;;;;;4979445;28;20491;-71
2024/02/20 01:48:04;;;;;;;25.43;24.43;;;;;;;;;;4979583;28;20461;-70
2024/02/20 01:50:33;;;;;;;24.13;23.20;;;;;;;;;;4979994;28;20469;-70
2024/02/20 01:53:00;;;;;;;24.03;23.13;;;;;;;;;;4981056;28;20588;-72
2024/02/20 01:55:27;;;;;;;24.50;23.60;;;;;;;;;;4981297;28;20460;-71
2024/02/20 01:57:54;;;;;;;24.03;23.13;;;;;;;;;;4980749;27;20944;-71
2024/02/20 02:00:22;;;;;;;24.40;23.40;;;;;;;;;;5018924;27;21056;-70
2024/02/20 02:02:51;;;;;;;25.67;24.57;;;;;;;;;;5024582;28;20967;-70
2024/02/20 02:05:19;;;;;;;26.27;25.17;;;;;;;;;;5021074;27;20465;-70
2024/02/20 02:07:46;;;;;;;24.10;23.20;;;;;;;;;;5016013;27;20466;-70
2024/02/20 02:10:13;;;;;;;24.50;23.50;;;;;;;;;;5035812;27;20462;-70
2024/02/20 02:12:40;;;;;;;24.73;23.73;;;;;;;;;;5021843;28;20454;-70
2024/02/20 02:15:08;;;;;;;24.30;23.30;;;;;;;;;;5017085;28;20477;-70
2024/02/20 02:17:35;;;;;;;25.30;24.30;;;;;;;;;;5024042;28;20527;-70
2024/02/20 02:20:06;;;;;;;24.67;23.67;;;;;;;;;;5025456;27;20463;-70
2024/02/20 02:22:34;;;;;;;24.47;23.50;;;;;;;;;;5046512;27;20554;-70
2024/02/20 02:25:01;;;;;;;24.80;23.80;;;;;;;;;;5019101;28;20548;-70
2024/02/20 02:27:30;;;;;;;24.23;23.33;;;;;;;;;;5024575;28;20565;-69
2024/02/20 02:29:57;;;;;;;24.07;23.07;;;;;;;;;;5031260;27;20461;-70
2024/02/20 02:32:24;;;;;;;24.70;23.70;;;;;;;;;;5015989;28;20474;-70
2024/02/20 02:34:51;;;;;;;23.70;22.80;;;;;;;;;;5021445;27;20459;-69
2024/02/20 02:37:18;;;;;;;23.60;22.70;;;;;;;;;;5020377;28;20493;-70
2024/02/20 02:39:46;;;;;;;23.87;22.90;;;;;;;;;;5026416;27;20540;-70
2024/02/20 02:42:13;;;;;;;22.90;22.00;;;;;;;;;;5025569;27;20469;-70
2024/02/20 02:44:43;;;;;;;23.07;22.17;;;;;;;;;;5020003;28;20819;-70
2024/02/20 02:47:11;;;;;;;24.40;23.40;;;;;;;;;;5026933;27;20476;-70
2024/02/20 02:49:38;;;;;;;23.53;22.63;;;;;;;;;;5015669;28;20458;-70
2024/02/20 02:52:06;;;;;;;24.50;23.50;;;;;;;;;;5012242;28;20488;-70
2024/02/20 02:54:33;;;;;;;23.57;22.67;;;;;;;;;;5018917;28;20469;-70
2024/02/20 02:57:00;;;;;;;24.30;23.30;;;;;;;;;;5025155;28;20486;-69
2024/02/20 02:59:27;;;;;;;23.73;22.83;;;;;;;;;;5024676;28;20449;-70
2024/02/20 03:01:56;;;;;;;23.37;22.47;;;;;;;;;;5011340;28;20454;-70
2024/02/20 03:04:24;;;;;;;23.73;22.73;;;;;;;;;;5019170;28;20453;-70
2024/02/20 03:06:51;;;;;;;23.70;22.70;;;;;;;;;;5021287;28;20461;-70
2024/02/20 03:09:21;;;;;;;24.27;23.27;;;;;;;;;;5015676;27;20875;-70
2024/02/20 03:11:49;;;;;;;23.70;22.70;;;;;;;;;;5023050;27;20492;-70
2024/02/20 03:14:17;;;;;;;23.90;22.90;;;;;;;;;;5024346;27;20460;-70
2024/02/20 03:16:45;;;;;;;24.23;23.23;;;;;;;;;;5030001;27;20481;-70
2024/02/20 03:19:14;;;;;;;24.00;23.00;;;;;;;;;;5014200;28;20466;-70
2024/02/20 03:21:41;;;;;;;23.63;22.63;;;;;;;;;;5014618;27;20832;-70
2024/02/20 03:24:09;;;;;;;23.90;22.90;;;;;;;;;;5021163;28;20553;-69
2024/02/20 03:26:36;;;;;;;23.70;22.70;;;;;;;;;;5035443;27;20455;-69
2024/02/20 03:29:03;;;;;;;23.27;22.37;;;;;;;;;;5013769;28;20479;-70
2024/02/20 03:31:31;;;;;;;22.63;21.73;;;;;;;;;;5024321;28;20457;-69
2024/02/20 03:33:58;;;;;;;22.57;21.67;;;;;;;;;;5020227;27;20470;-70
2024/02/20 03:36:27;;;;;;;23.00;22.10;;;;;;;;;;5010286;28;20787;-70
2024/02/20 03:38:54;;;;;;;23.03;22.13;;;;;;;;;;5020385;28;20935;-70
2024/02/20 03:41:21;;;;;;;22.57;21.67;;;;;;;;;;5024961;28;20465;-70
2024/02/20 03:43:48;;;;;;;23.23;22.30;;;;;;;;;;5015273;27;20469;-70
2024/02/20 03:46:16;;;;;;;23.13;22.23;;;;;;;;;;5020999;27;20487;-70
2024/02/20 03:48:43;;;;;;;22.47;21.57;;;;;;;;;;5011538;28;20477;-69
2024/02/20 03:51:11;;;;;;;22.47;21.57;;;;;;;;;;5009665;28;20466;-70
2024/02/20 03:53:40;;;;;;;23.20;22.30;;;;;;;;;;5023215;28;20489;-70
2024/02/20 03:56:12;;;;;;;23.37;22.47;;;;;;;;;;5019961;28;20813;-70
2024/02/20 03:58:39;;;;;;;23.70;22.70;;;;;;;;;;5023937;28;20552;-70
2024/02/20 04:01:08;;;;;;;23.57;22.57;;;;;;;;;;5010851;27;21008;-70
2024/02/20 04:03:35;;;;;;;24.70;23.60;;;;;;;;;;5016056;28;20461;-70
2024/02/20 04:06:02;;;;;;;24.57;23.57;;;;;;;;;;5023194;27;20806;-70
2024/02/20 04:08:29;;;;;;;25.30;24.20;;;;;;;;;;5009689;28;21247;-70
2024/02/20 04:10:59;;;;;;;25.53;24.43;;;;;;;;;;5013063;28;20461;-70
2024/02/20 04:13:26;;;;;;;26.50;25.30;;;;;;;;;;5021923;27;21291;-70
2024/02/20 04:15:53;;;;;;;25.43;24.33;;;;;;;;;;5014387;28;20564;-70
2024/02/20 04:18:20;;;;;;;25.00;23.90;;;;;;;;;;5022039;28;20491;-70
2024/02/20 04:20:47;;;;;;;25.20;24.10;;;;;;;;;;5012919;28;20466;-69
2024/02/20 04:23:14;;;;;;;25.80;24.60;;;;;;;;;;5021264;28;20461;-70
2024/02/20 04:25:43;;;;;;;25.90;24.80;;;;;;;;;;5022374;28;20461;-70
2024/02/20 04:28:11;;;;;;;26.00;24.80;;;;;;;;;;5012777;28;20477;-70
2024/02/20 04:30:40;;;;;;;26.10;24.90;;;;;;;;;;5034242;28;20460;-70
2024/02/20 04:33:07;;;;;;;26.50;25.30;;;;;;;;;;5019512;28;20552;-70
2024/02/20 04:35:34;;;;;;;26.97;25.77;;;;;;;;;;5013125;28;20485;-70
2024/02/20 04:38:01;;;;;;;26.57;25.37;;;;;;;;;;5023271;28;20487;-70
2024/02/20 04:40:28;;;;;;;27.60;26.30;;;;;;;;;;5017748;28;20465;-70
2024/02/20 04:42:55;;;;;;;27.57;26.27;;;;;;;;;;5023708;28;20469;-70
2024/02/20 04:45:24;;;;;;;28.40;27.07;;;;;;;;;;5018151;28;20847;-70
2024/02/20 04:47:53;;;;;;;28.53;27.13;;;;;;;;;;5011551;28;20838;-70
2024/02/20 04:50:20;;;;;;;28.73;27.33;;;;;;;;;;5021749;28;20849;-70
2024/02/20 04:52:48;;;;;;;29.00;27.50;;;;;;;;;;5014742;28;20497;-70
2024/02/20 04:55:15;;;;;;;28.37;26.97;;;;;;;;;;5023933;28;20850;-70
2024/02/20 04:57:42;;;;;;;28.00;26.70;;;;;;;;;;5018760;28;20496;-70
2024/02/20 05:00:10;;;;;;;28.27;26.87;;;;;;;;;;5015411;28;20462;-70
2024/02/20 05:02:40;;;;;;;27.40;26.10;;;;;;;;;;5018094;28;20539;-69
2024/02/20 05:05:08;;;;;;;27.50;26.20;;;;;;;;;;5003672;28;20968;-69
2024/02/20 05:07:35;;;;;;;26.37;25.17;;;;;;;;;;5010477;28;20483;-70
2024/02/20 05:10:02;;;;;;;27.23;26.03;;;;;;;;;;5022782;28;20466;-70
2024/02/20 05:12:29;;;;;;;28.50;27.20;;;;;;;;;;5016668;28;20466;-70
2024/02/20 05:14:56;;;;;;;26.63;25.33;;;;;;;;;;5010817;28;20465;-70
2024/02/20 05:17:24;;;;;;;26.90;25.60;;;;;;;;;;5029023;27;20494;-70
2024/02/20 05:19:52;;;;;;;26.07;24.87;;;;;;;;;;5017623;28;21034;-70
2024/02/20 05:22:19;;;;;;;26.67;25.47;;;;;;;;;;5022899;27;20461;-71
2024/02/20 05:24:47;;;;;;;26.50;25.30;;;;;;;;;;5018032;28;20473;-70
2024/02/20 05:27:14;;;;;;;27.23;26.03;;;;;;;;;;5024364;28;20908;-70
2024/02/20 05:29:41;;;;;;;27.43;26.13;;;;;;;;;;5024130;27;20877;-70
2024/02/20 05:32:08;;;;;;;27.10;25.90;;;;;;;;;;5012132;27;20504;-70
2024/02/20 05:34:35;;;;;;;26.80;25.60;;;;;;;;;;5012675;28;20577;-70
2024/02/20 05:37:04;;;;;;;27.57;26.30;;;;;;;;;;5024900;27;20481;-70
2024/02/20 05:39:31;;;;;;;26.83;25.63;;;;;;;;;;5018133;27;20473;-70
2024/02/20 05:41:58;;;;;;;26.63;25.43;;;;;;;;;;5015869;27;20793;-70
2024/02/20 05:44:25;;;;;;;27.73;26.43;;;;;;;;;;5012820;28;20466;-70
2024/02/20 05:46:53;;;;;;;26.23;25.03;;;;;;;;;;5027593;27;20529;-70
2024/02/20 05:49:20;;;;;;;27.10;25.90;;;;;;;;;;5019508;27;20461;-70
2024/02/20 05:51:48;;;;;;;27.10;25.80;;;;;;;;;;5023758;27;20459;-69
2024/02/20 05:54:17;;;;;;;27.50;26.20;;;;;;;;;;5021809;28;20467;-70
2024/02/20 05:56:44;;;;;;;26.27;25.07;;;;;;;;;;5019717;27;20465;-70
2024/02/20 05:59:11;;;;;;;26.93;25.73;;;;;;;;;;5021279;28;21029;-70
2024/02/20 06:01:38;;;;;;;26.40;25.20;;;;;;;;;;5019480;27;20459;-70
2024/02/20 06:04:05;;;;;;;26.13;24.93;;;;;;;;;;5009607;27;20472;-70
2024/02/20 06:06:34;;;;;;;25.87;24.67;;;;;;;;;;5016864;27;21149;-70
2024/02/20 06:09:02;;;;;;;25.93;24.73;;;;;;;;;;5012994;27;20490;-70
2024/02/20 06:11:31;;;;;;;25.93;24.73;;;;;;;;;;5012982;28;20821;-70
2024/02/20 06:13:58;;;;;;;25.73;24.53;;;;;;;;;;5012041;27;20561;-70
2024/02/20 06:16:26;;;;;;;25.20;24.10;;;;;;;;;;5019224;27;20478;-70
2024/02/20 06:18:53;;;;;;;24.83;23.73;;;;;;;;;;5016877;27;20493;-71
2024/02/20 06:21:22;;;;;;;25.67;24.57;;;;;;;;;;5008477;27;20456;-70
2024/02/20 06:23:49;;;;;;;25.70;24.60;;;;;;;;;;5019722;27;20547;-70
2024/02/20 06:26:17;;;;;;;25.30;24.20;;;;;;;;;;5022503;27;20476;-70
2024/02/20 06:28:46;;;;;;;25.97;24.80;;;;;;;;;;5026093;27;20452;-70
2024/02/20 06:31:13;;;;;;;26.47;25.27;;;;;;;;;;5022345;27;20647;-70
2024/02/20 06:33:42;;;;;;;26.17;25.07;;;;;;;;;;5018985;28;20459;-70
2024/02/20 06:36:10;;;;;;;26.83;25.63;;;;;;;;;;5021514;28;20481;-71
2024/02/20 06:38:37;;;;;;;26.17;24.97;;;;;;;;;;5020625;27;20501;-70
2024/02/20 06:41:05;;;;;;;25.70;24.50;;;;;;;;;;5018342;27;20469;-71
2024/02/20 06:43:32;;;;;;;25.03;23.93;;;;;;;;;;5018173;27;20504;-70
2024/02/20 06:46:02;;;;;;;25.20;24.10;;;;;;;;;;5025791;27;20485;-71
2024/02/20 06:48:29;;;;;;;24.60;23.60;;;;;;;;;;5036409;27;20523;-70
2024/02/20 06:50:56;;;;;;;23.70;22.70;;;;;;;;;;5012178;28;20726;-70
2024/02/20 06:53:23;;;;;;;24.07;23.07;;;;;;;;;;5021727;27;20485;-70
2024/02/20 06:55:51;;;;;;;23.70;22.70;;;;;;;;;;5007565;28;20764;-70
2024/02/20 06:58:18;;;;;;;23.90;22.90;;;;;;;;;;5026211;27;20497;-70
2024/02/20 07:00:45;;;;;;;23.77;22.77;;;;;;;;;;5025743;28;20466;-71
2024/02/20 07:03:14;;;;;;;22.80;21.90;;;;;;;;;;5017930;28;20946;-70
2024/02/20 07:05:41;;;;;;;22.50;21.60;;;;;;;;;;5014664;27;20462;-70
2024/02/20 07:08:09;;;;;;;22.03;21.13;;;;;;;;;;5016067;27;20466;-70
2024/02/20 07:10:37;;;;;;;22.80;21.80;;;;;;;;;;5017382;27;20888;-70
2024/02/20 07:13:04;;;;;;;22.13;21.23;;;;;;;;;;5014014;27;20475;-70
2024/02/20 07:15:31;;;;;;;21.97;21.07;;;;;;;;;;5010478;27;20556;-70
2024/02/20 07:17:58;;;;;;;22.33;21.43;;;;;;;;;;5013509;27;20491;-71
2024/02/20 07:20:27;;;;;;;21.60;20.80;;;;;;;;;;5007581;27;21008;-70
2024/02/20 07:22:55;;;;;;;21.10;20.30;;;;;;;;;;5012772;28;20457;-70
2024/02/20 07:25:22;;;;;;;21.33;20.53;;;;;;;;;;5012849;27;20519;-70
2024/02/20 07:27:49;;;;;;;21.10;20.30;;;;;;;;;;5014211;27;20830;-70
2024/02/20 07:30:17;;;;;;;22.20;21.30;;;;;;;;;;5013785;27;20484;-71
2024/02/20 07:32:44;;;;;;;21.70;20.80;;;;;;;;;;5005883;27;20474;-71
2024/02/20 07:35:11;;;;;;;21.20;20.37;;;;;;;;;;5013183;27;20488;-70
2024/02/20 07:37:40;;;;;;;21.80;20.90;;;;;;;;;;5012530;28;20490;-71
2024/02/20 07:40:08;;;;;;;21.07;20.27;;;;;;;;;;5009750;27;20547;-70
2024/02/20 07:42:36;;;;;;;21.60;20.70;;;;;;;;;;5009741;27;20976;-70
2024/02/20 07:45:03;;;;;;;21.07;20.27;;;;;;;;;;5011471;27;21162;-70
2024/02/20 07:47:31;;;;;;;21.33;20.43;;;;;;;;;;5014784;27;20462;-70
2024/02/20 07:49:58;;;;;;;21.10;20.30;;;;;;;;;;5013502;27;20509;-70
2024/02/20 07:52:25;;;;;;;21.00;20.20;;;;;;;;;;5010177;27;20492;-70
2024/02/20 07:54:54;;;;;;;21.13;20.30;;;;;;;;;;5011132;28;20476;-70
2024/02/20 07:57:21;;;;;;;21.07;20.27;;;;;;;;;;5016743;27;20467;-69
2024/02/20 07:59:49;;;;;;;21.63;20.73;;;;;;;;;;5008612;27;21085;-70
2024/02/20 08:02:16;;;;;;;21.10;20.30;;;;;;;;;;5013759;27;20462;-70
2024/02/20 08:04:46;;;;;;;20.33;19.53;;;;;;;;;;5007073;27;20840;-70
2024/02/20 08:07:13;;;;;;;21.17;20.27;;;;;;;;;;5009866;28;20511;-71
2024/02/20 08:09:40;;;;;;;21.27;20.40;;;;;;;;;;5014326;27;20469;-70
2024/02/20 08:12:10;;;;;;;20.90;20.10;;;;;;;;;;5011381;28;20473;-70
2024/02/20 08:14:38;;;;;;;19.87;19.07;;;;;;;;;;5013376;27;20469;-70
2024/02/20 08:17:06;;;;;;;20.97;20.17;;;;;;;;;;5010458;28;20457;-70
2024/02/20 08:19:33;;;;;;;19.80;19.00;;;;;;;;;;5006827;27;20588;-70
2024/02/20 08:22:00;;;;;;;19.23;18.53;;;;;;;;;;5016145;27;20457;-71
2024/02/20 08:24:28;;;;;;;19.27;18.57;;;;;;;;;;5015087;27;20473;-71
2024/02/20 08:26:57;;;;;;;19.57;18.87;;;;;;;;;;5015424;27;20885;-70
2024/02/20 08:29:27;;;;;;;19.33;18.63;;;;;;;;;;5006218;28;20891;-71
2024/02/20 08:31:55;;;;;;;18.60;17.90;;;;;;;;;;5008780;28;20561;-70
2024/02/20 08:34:22;;;;;;;19.00;18.30;;;;;;;;;;5012018;27;20480;-70
2024/02/20 08:36:50;;;;;;;17.73;17.13;;;;;;;;;;5007524;28;21455;-70
2024/02/20 08:39:17;;;;;;;17.67;17.07;;;;;;;;;;5008043;28;20549;-70
2024/02/20 08:41:44;;;;;;;16.90;16.40;;;;;;;;;;5012629;28;20474;-70
2024/02/20 08:44:11;;;;;;;15.73;15.23;;;;;;;;;;5010652;27;20557;-70
2024/02/20 08:46:40;;;;;;;15.67;15.17;;;;;;;;;;5012462;28;20492;-70
2024/02/20 08:49:07;;;;;;;13.87;13.47;;;;;;;;;;5005239;27;20474;-71
2024/02/20 08:51:34;;;;;;;13.70;13.30;;;;;;;;;;5014795;27;20484;-71
2024/02/20 08:54:01;;;;;;;13.27;12.93;;;;;;;;;;5018052;27;20553;-71
2024/02/20 08:56:29;;;;;;;12.70;12.40;;;;;;;;;;5019470;27;20465;-71
2024/02/20 08:58:56;;;;;;;11.60;11.30;;;;;;;;;;5017356;27;20528;-70
2024/02/20 09:01:24;;;;;;;11.10;10.90;;;;;;;;;;5016277;27;20474;-71
2024/02/20 09:03:53;;;;;;;10.50;10.30;;;;;;;;;;5014353;27;20500;-70
2024/02/20 09:06:20;;;;;;;9.90;9.70;;;;;;;;;;5014997;27;20462;-71
2024/02/20 09:08:47;;;;;;;9.60;9.40;;;;;;;;;;5011253;27;20908;-70
2024/02/20 09:11:14;;;;;;;9.63;9.43;;;;;;;;;;5014676;27;21345;-70
2024/02/20 09:13:41;;;;;;;9.63;9.43;;;;;;;;;;5021184;27;20472;-71
2024/02/20 09:16:09;;;;;;;9.60;9.40;;;;;;;;;;5014088;27;20818;-71
2024/02/20 09:18:36;;;;;;;8.60;8.50;;;;;;;;;;5012768;27;20496;-70
2024/02/20 09:21:06;;;;;;;9.13;8.97;;;;;;;;;;5017570;27;20477;-71
2024/02/20 09:23:37;;;;;;;8.47;8.37;;;;;;;;;;5020529;27;20466;-73
2024/02/20 09:26:04;;;;;;;8.53;8.43;;;;;;;;;;5017255;27;20467;-71
2024/02/20 09:28:46;;;;;;;8.80;8.70;;;;;;;;;;5020437;27;20470;-69
2024/02/20 09:31:13;;;;;;;8.83;8.73;;;;;;;;;;5014584;27;20469;-70
2024/02/20 09:33:41;;;;;;;8.40;8.30;;;;;;;;;;5018365;27;20481;-71
2024/02/20 09:36:09;;;;;;;8.20;8.10;;;;;;;;;;5016638;27;20465;-71
2024/02/20 09:38:36;;;;;;;8.20;8.10;;;;;;;;;;5020804;27;20488;-70
2024/02/20 09:41:05;;;;;;;8.40;8.30;;;;;;;;;;5013452;27;20806;-71
2024/02/20 09:43:32;;;;;;;8.40;8.30;;;;;;;;;;5019455;27;20474;-70
2024/02/20 09:46:05;;;;;;;8.70;8.60;;;;;;;;;;5015464;27;20523;-72
2024/02/20 09:48:33;;;;;;;7.83;7.73;;;;;;;;;;5016992;27;20454;-71
2024/02/20 09:51:01;;;;;;;9.03;8.83;;;;;;;;;;5013101;27;20944;-73
2024/02/20 09:53:30;;;;;;;9.20;9.00;;;;;;;;;;5018650;27;20867;-70
2024/02/20 09:55:57;;;;;;;9.30;9.10;;;;;;;;;;5015962;27;20917;-72
2024/02/20 09:58:24;;;;;;;9.67;9.47;;;;;;;;;;5018004;27;20469;-71
2024/02/20 10:00:53;;;;;;;9.00;8.80;;;;;;;;;;5012883;27;20481;-71
2024/02/20 10:03:20;;;;;;;9.83;9.63;;;;;;;;;;5010032;27;20469;-73
2024/02/20 10:05:48;;;;;;;9.43;9.23;;;;;;;;;;5012924;28;20467;-71
2024/02/20 10:08:16;;;;;;;9.93;9.73;;;;;;;;;;5017153;27;20568;-72
2024/02/20 10:10:46;;;;;;;10.33;10.13;;;;;;;;;;5016913;27;20558;-70
2024/02/20 10:13:14;;;;;;;10.60;10.30;;;;;;;;;;5015016;27;20462;-72
2024/02/20 10:15:41;;;;;;;10.77;10.47;;;;;;;;;;5010180;28;20487;-73
2024/02/20 10:18:08;;;;;;;10.77;10.47;;;;;;;;;;5005733;28;20507;-72
2024/02/20 10:20:37;;;;;;;10.80;10.50;;;;;;;;;;5009924;27;20501;-72
2024/02/20 10:23:05;;;;;;;10.70;10.40;;;;;;;;;;5009766;27;20532;-72
2024/02/20 10:25:32;;;;;;;11.30;11.00;;;;;;;;;;5008640;28;20468;-71
2024/02/20 10:28:00;;;;;;;11.37;11.07;;;;;;;;;;5007261;28;20473;-71
2024/02/20 10:30:27;;;;;;;10.63;10.33;;;;;;;;;;5009114;28;20471;-71
2024/02/20 10:32:55;;;;;;;10.70;10.40;;;;;;;;;;5008433;28;20840;-71
2024/02/20 10:35:23;;;;;;;11.40;11.10;;;;;;;;;;5006415;27;20486;-71
2024/02/20 10:37:59;;;;;;;11.67;11.37;;;;;;;;;;5007667;27;20463;-71
2024/02/20 10:40:26;;;;;;;11.60;11.30;;;;;;;;;;5014657;27;20649;-71
2024/02/20 10:42:55;;;;;;;11.73;11.43;;;;;;;;;;5006636;28;20468;-71
2024/02/20 10:45:24;;;;;;;11.87;11.57;;;;;;;;;;5008179;27;21190;-73
2024/02/20 10:47:52;;;;;;;11.90;11.60;;;;;;;;;;5007869;28;20841;-71
2024/02/20 10:50:20;;;;;;;12.10;11.70;;;;;;;;;;5009498;28;20557;-72
2024/02/20 10:52:48;;;;;;;12.07;11.67;;;;;;;;;;5010456;27;20582;-70
2024/02/20 10:55:16;;;;;;;12.37;11.97;;;;;;;;;;5003767;27;20475;-71
2024/02/20 10:57:43;;;;;;;12.50;12.10;;;;;;;;;;5008759;27;20970;-71
2024/02/20 11:00:11;;;;;;;12.87;12.47;;;;;;;;;;5015262;27;20916;-71
2024/02/20 11:02:40;;;;;;;12.47;12.07;;;;;;;;;;5006611;28;20467;-72
2024/02/20 11:05:09;;;;;;;12.50;12.10;;;;;;;;;;5008335;27;20471;-70
2024/02/20 11:07:36;;;;;;;13.30;12.90;;;;;;;;;;5005148;27;20950;-72
2024/02/20 11:10:08;;;;;;;13.33;12.93;;;;;;;;;;5014919;27;20457;-71
2024/02/20 11:12:35;;;;;;;12.93;12.53;;;;;;;;;;5005211;28;20546;-72
2024/02/20 11:15:23;;;;;;;12.90;12.50;;;;;;;;;;5007029;28;20874;-72
2024/02/20 11:17:51;;;;;;;12.70;12.30;;;;;;;;;;5009920;28;20519;-72
2024/02/20 11:20:19;;;;;;;13.10;12.70;;;;;;;;;;5011611;27;20507;-72
2024/02/20 11:22:48;;;;;;;13.07;12.67;;;;;;;;;;5006398;27;21503;-70
2024/02/20 11:25:16;;;;;;;13.20;12.80;;;;;;;;;;5008199;27;20594;-71
2024/02/20 11:27:45;;;;;;;13.20;12.80;;;;;;;;;;5009982;28;20472;-70
2024/02/20 11:30:13;;;;;;;13.10;12.70;;;;;;;;;;5010530;27;20465;-72
2024/02/20 11:32:41;;;;;;;13.23;12.83;;;;;;;;;;5007101;28;20854;-71
2024/02/20 11:35:27;;;;;;;13.00;12.60;;;;;;;;;;5010066;27;21020;-71
2024/02/20 11:37:56;;;;;;;13.70;13.30;;;;;;;;;;5008752;28;20838;-71
2024/02/20 11:40:24;;;;;;;14.00;13.50;;;;;;;;;;5003935;28;20495;-71
2024/02/20 11:42:51;;;;;;;13.73;13.30;;;;;;;;;;5008823;28;20591;-72
2024/02/20 11:45:20;;;;;;;13.73;13.30;;;;;;;;;;5011208;27;20464;-72
2024/02/20 11:47:57;;;;;;;13.77;13.30;;;;;;;;;;5010048;28;20566;-72
2024/02/20 11:50:24;;;;;;;13.83;13.33;;;;;;;;;;5009313;27;20872;-71
2024/02/20 11:52:59;;;;;;;14.00;13.50;;;;;;;;;;5004570;28;20496;-71
2024/02/20 11:55:26;;;;;;;13.70;13.30;;;;;;;;;;5011752;28;20472;-70
2024/02/20 12:00:36;;;;;;;13.07;12.67;;;;;;;;;;5011978;27;20591;-70
2024/02/20 12:03:04;;;;;;;13.93;13.43;;;;;;;;;;5008103;28;20562;-73
2024/02/20 12:05:37;;;;;;;14.03;13.53;;;;;;;;;;5011134;28;20989;-72
2024/02/20 12:08:12;;;;;;;13.63;13.23;;;;;;;;;;5009053;28;20468;-71
2024/02/20 12:10:40;;;;;;;13.50;13.10;;;;;;;;;;5007904;28;20460;-71
2024/02/20 12:13:12;;;;;;;14.40;13.90;;;;;;;;;;5007436;28;20830;-70
2024/02/20 12:15:40;;;;;;;14.17;13.67;;;;;;;;;;5013420;27;20999;-72
2024/02/20 12:18:08;;;;;;;14.00;13.50;;;;;;;;;;5011056;28;20550;-71
2024/02/20 12:20:35;;;;;;;13.80;13.40;;;;;;;;;;5003212;28;20473;-73
2024/02/20 12:23:02;;;;;;;14.37;13.87;;;;;;;;;;5009058;28;20479;-71
2024/02/20 12:25:30;;;;;;;14.33;13.83;;;;;;;;;;5009863;28;20468;-72
2024/02/20 12:27:57;;;;;;;14.10;13.60;;;;;;;;;;5009979;28;20464;-72
2024/02/20 12:30:25;;;;;;;13.73;13.27;;;;;;;;;;5006043;28;20472;-72
2024/02/20 12:32:52;;;;;;;14.10;13.60;;;;;;;;;;5003671;28;20471;-71
2024/02/20 12:35:19;;;;;;;14.47;13.97;;;;;;;;;;5004126;28;20857;-72
2024/02/20 12:37:46;;;;;;;13.60;13.10;;;;;;;;;;5001880;28;20561;-72
2024/02/20 12:40:18;;;;;;;14.23;13.73;;;;;;;;;;5003537;28;20499;-72
2024/02/20 12:42:47;;;;;;;13.80;13.30;;;;;;;;;;5004943;28;20574;-72
2024/02/20 12:45:14;;;;;;;14.37;13.87;;;;;;;;;;5010854;28;20984;-73
2024/02/20 12:47:41;;;;;;;14.30;13.80;;;;;;;;;;5006388;28;20870;-72
2024/02/20 12:50:09;;;;;;;14.80;14.30;;;;;;;;;;5005331;28;20474;-72
2024/02/20 12:52:37;;;;;;;14.30;13.80;;;;;;;;;;5003965;28;20497;-71
2024/02/20 12:55:04;;;;;;;14.27;13.77;;;;;;;;;;5006597;28;20477;-71
2024/02/20 12:57:32;;;;;;;14.23;13.73;;;;;;;;;;5004944;28;20494;-72
2024/02/20 13:00:01;;;;;;;14.37;13.87;;;;;;;;;;5008527;28;20497;-72
2024/02/20 13:02:28;;;;;;;13.83;13.33;;;;;;;;;;5002479;28;20505;-72
2024/02/20 13:04:56;;;;;;;14.63;14.13;;;;;;;;;;5009277;28;20468;-72
2024/02/20 13:07:23;;;;;;;13.63;13.17;;;;;;;;;;5006904;28;20942;-71
2024/02/20 13:09:51;;;;;;;14.10;13.60;;;;;;;;;;5010894;28;20461;-70
2024/02/20 13:12:18;;;;;;;14.57;14.07;;;;;;;;;;5006919;28;20476;-71
2024/02/20 13:14:48;;;;;;;14.10;13.60;;;;;;;;;;4999572;28;20462;-71
2024/02/20 13:17:17;;;;;;;14.27;13.77;;;;;;;;;;5009251;28;20469;-71
2024/02/20 13:19:44;;;;;;;14.20;13.70;;;;;;;;;;5007503;28;20818;-72
2024/02/20 13:22:12;;;;;;;14.03;13.53;;;;;;;;;;5002390;28;20473;-70
2024/02/20 13:24:40;;;;;;;14.60;14.10;;;;;;;;;;5006488;28;20469;-73
2024/02/20 13:27:08;;;;;;;14.33;13.83;;;;;;;;;;5007905;28;21074;-72
2024/02/20 13:29:35;;;;;;;14.07;13.57;;;;;;;;;;5001387;28;20477;-72
2024/02/20 13:32:03;;;;;;;13.80;13.30;;;;;;;;;;5002099;28;20476;-71
2024/02/20 13:34:32;;;;;;;14.27;13.77;;;;;;;;;;5008591;28;20458;-71
2024/02/20 13:37:01;;;;;;;14.00;13.50;;;;;;;;;;4990281;27;20475;-71
2024/02/20 13:39:28;;;;;;;14.53;14.03;;;;;;;;;;5008148;27;20551;-72
2024/02/20 13:41:55;;;;;;;14.63;14.13;;;;;;;;;;5000733;27;20879;-71
2024/02/20 13:44:22;;;;;;;14.50;14.00;;;;;;;;;;5006053;28;20987;-71
2024/02/20 13:46:51;;;;;;;14.60;14.10;;;;;;;;;;5010745;27;20482;-70
2024/02/20 13:49:22;;;;;;;14.73;14.23;;;;;;;;;;5010320;28;20483;-71
2024/02/20 13:51:51;;;;;;;15.20;14.60;;;;;;;;;;5011604;28;20533;-71
2024/02/20 13:54:19;;;;;;;14.40;13.90;;;;;;;;;;5010607;28;20461;-72
2024/02/20 13:56:46;;;;;;;14.83;14.33;;;;;;;;;;5010238;28;20552;-72
2024/02/20 13:59:13;;;;;;;14.20;13.70;;;;;;;;;;5009067;28;21044;-71
2024/02/20 14:01:41;;;;;;;14.70;14.20;;;;;;;;;;5009446;28;20879;-72
2024/02/20 14:04:08;;;;;;;15.17;14.57;;;;;;;;;;5009950;28;20474;-70
2024/02/20 14:06:35;;;;;;;14.37;13.87;;;;;;;;;;5011087;28;20484;-71
2024/02/20 14:09:05;;;;;;;15.20;14.60;;;;;;;;;;5011196;28;20837;-70
2024/02/20 14:11:33;;;;;;;14.63;14.13;;;;;;;;;;5009536;27;20488;-72
2024/02/20 14:14:00;;;;;;;14.63;14.13;;;;;;;;;;5011305;28;20559;-70
2024/02/20 14:16:27;;;;;;;15.10;14.50;;;;;;;;;;5010329;28;20468;-71
2024/02/20 14:18:54;;;;;;;14.20;13.70;;;;;;;;;;5012495;28;20979;-71
2024/02/20 14:21:22;;;;;;;14.77;14.27;;;;;;;;;;5009308;28;20503;-71
2024/02/20 14:23:49;;;;;;;14.63;14.13;;;;;;;;;;5007458;28;20612;-71
2024/02/20 14:26:17;;;;;;;14.43;13.93;;;;;;;;;;5011831;27;20564;-71